White Lake, SD (57383)

2:16 PM CDT on October 25, 2014 (GMT -0500)
Wessington Springs Hills | Change Station
CLOSE
Current Station
Personal Weather Station
Location: Wessington Springs, SD
Elevation: 1683 ft
Nearby Weather Stations

Elev 1683 ft 44.08 °N, 98.57 °W | Updated 6 minutes ago

Clear
Clear
65.6 °F
Feels Like 65.6 °F
N
4.0
Wind Variable Wind from ENE
Gusts 8.0 mph

Today
High -- | Low -- °F
--% Chance of Precip.
Yesterday
High -- | Low -- °F
Precip. -- in
8:01 AM 6:35 PM
Waxing Crescent, 4% visible
Pressure 30.12 in
Visibility 10.0 miles
Clouds Clear
Dew Point 32 °F
Humidity 29%
Rainfall 0.00 in
Snow Depth Not available.
UV 4 out of 12
Pollen 1.60 out of 12
Air Quality Not available.
Flu Activity Sporadic
METAR K9V9 251855Z AUTO 15004KT 10SM CLR 19/M01 A3012 RMK AO2 T01901012

More Conditions Fewer Conditions

Pressure 30.12 in
Visibility 10.0 miles
Clouds Clear
Dew Point 32 °F
Humidity 29%
Rainfall 0.00 in
Snow Depth Not available.
UV 4 out of 12
Pollen 1.60 out of 12
Air Quality Not available.
Flu Activity Sporadic
METAR K9V9 251855Z AUTO 15004KT 10SM CLR 19/M01 A3012 RMK AO2 T01901012

More Conditions Fewer Conditions

10-Day Weather Forecast

Almanac

Astronomy

Oct. 25, 2014 Rise Set
Actual Time 8:01 AM CDT 6:35 PM CDT
Civil Twilight 7:32 AM CDT 7:04 PM CDT
Nautical Twilight 6:58 AM CDT 7:38 PM CDT
Astronomical Twilight 6:25 AM CDT 8:11 PM CDT
Moon 9:44 AM CDT 7:56 PM CDT
Length of Visible Light 11h 32m
Length of Day
10h 33m
Tomorrow will be 2m 47s shorter.
Waxing Crescent, 4% of the Moon is Illuminated
Today
Waxing Crescent
Oct 30
First Quarter
Nov 6
Full
Nov 14
Last Quarter
Nov 22
New

Today's Extremes

State Highs State Lows

Community

WunderPhotos

Upload Photos

1,764,965 photos uploaded!

Nearby

Snow Depth

Station Depth Elevation
North Rapid Creek 0 in 6130 ft

Earthquake Activity

City Distance Mag. Time & Date
No recent earthquake activity has been reported nearby.
Minimum magnitude displayed is 2.5.

Coastal Water Temperatures

Place Temperature
No Stations Reporting

Nearby Weather Stations